sensor_id;sensor_type;location;lat;lon;timestamp;P1;durP1;ratioP1;P2;durP2;ratioP2
14766;SDS011;7475;53.558;9.970;2022-08-19T00:00:13;7.87;;;7.17;;
14766;SDS011;7475;53.558;9.970;2022-08-19T00:02:40;8.50;;;7.10;;
14766;SDS011;7475;53.558;9.970;2022-08-19T00:05:06;8.43;;;7.10;;
14766;SDS011;7475;53.558;9.970;2022-08-19T00:07:31;8.27;;;7.47;;
14766;SDS011;7475;53.558;9.970;2022-08-19T00:09:57;11.63;;;7.68;;
14766;SDS011;7475;53.558;9.970;2022-08-19T00:12:22;9.20;;;7.72;;
14766;SDS011;7475;53.558;9.970;2022-08-19T00:14:47;9.27;;;8.37;;
14766;SDS011;7475;53.558;9.970;2022-08-19T00:17:12;9.93;;;8.80;;
14766;SDS011;7475;53.558;9.970;2022-08-19T00:19:38;13.45;;;11.30;;
14766;SDS011;7475;53.558;9.970;2022-08-19T00:22:03;12.73;;;10.55;;
14766;SDS011;7475;53.558;9.970;2022-08-19T00:24:28;15.00;;;12.10;;
14766;SDS011;7475;53.558;9.970;2022-08-19T00:26:54;15.50;;;12.48;;
14766;SDS011;7475;53.558;9.970;2022-08-19T00:29:21;18.50;;;13.65;;
14766;SDS011;7475;53.558;9.970;2022-08-19T00:31:47;16.67;;;13.35;;
14766;SDS011;7475;53.558;9.970;2022-08-19T00:34:13;14.88;;;13.15;;
14766;SDS011;7475;53.558;9.970;2022-08-19T00:36:39;18.33;;;14.15;;
14766;SDS011;7475;53.558;9.970;2022-08-19T00:39:05;16.88;;;13.90;;
14766;SDS011;7475;53.558;9.970;2022-08-19T00:41:30;18.52;;;15.43;;
14766;SDS011;7475;53.558;9.970;2022-08-19T00:46:24;19.35;;;17.25;;
14766;SDS011;7475;53.558;9.970;2022-08-19T00:48:49;20.65;;;18.17;;
14766;SDS011;7475;53.558;9.970;2022-08-19T00:51:14;19.47;;;17.10;;
14766;SDS011;7475;53.558;9.970;2022-08-19T00:53:39;17.90;;;15.98;;
14766;SDS011;7475;53.558;9.970;2022-08-19T00:56:05;19.50;;;16.42;;
14766;SDS011;7475;53.558;9.970;2022-08-19T00:58:32;19.77;;;17.60;;
14766;SDS011;7475;53.558;9.970;2022-08-19T01:00:58;23.10;;;18.35;;
14766;SDS011;7475;53.558;9.970;2022-08-19T01:03:23;22.55;;;18.63;;
14766;SDS011;7475;53.558;9.970;2022-08-19T01:05:49;27.17;;;20.95;;
14766;SDS011;7475;53.558;9.970;2022-08-19T01:08:16;25.40;;;21.63;;
14766;SDS011;7475;53.558;9.970;2022-08-19T01:10:45;27.50;;;22.30;;
14766;SDS011;7475;53.558;9.970;2022-08-19T01:13:11;23.40;;;20.25;;
14766;SDS011;7475;53.558;9.970;2022-08-19T01:15:40;25.35;;;20.50;;
14766;SDS011;7475;53.558;9.970;2022-08-19T01:18:08;27.83;;;21.35;;
14766;SDS011;7475;53.558;9.970;2022-08-19T01:20:33;25.88;;;19.88;;
14766;SDS011;7475;53.558;9.970;2022-08-19T01:22:59;24.48;;;19.10;;
14766;SDS011;7475;53.558;9.970;2022-08-19T01:25:26;21.75;;;19.08;;
14766;SDS011;7475;53.558;9.970;2022-08-19T01:27:52;25.65;;;18.77;;
14766;SDS011;7475;53.558;9.970;2022-08-19T01:30:38;24.10;;;19.42;;
14766;SDS011;7475;53.558;9.970;2022-08-19T01:33:03;22.27;;;17.23;;
14766;SDS011;7475;53.558;9.970;2022-08-19T01:35:30;25.55;;;18.95;;
14766;SDS011;7475;53.558;9.970;2022-08-19T01:37:58;20.48;;;18.13;;
14766;SDS011;7475;53.558;9.970;2022-08-19T01:40:25;20.08;;;17.98;;
14766;SDS011;7475;53.558;9.970;2022-08-19T01:42:51;22.27;;;17.30;;
14766;SDS011;7475;53.558;9.970;2022-08-19T01:45:18;20.83;;;17.90;;
14766;SDS011;7475;53.558;9.970;2022-08-19T01:47:43;20.38;;;17.80;;
14766;SDS011;7475;53.558;9.970;2022-08-19T01:50:09;22.30;;;18.73;;
14766;SDS011;7475;53.558;9.970;2022-08-19T01:52:38;22.48;;;17.80;;
14766;SDS011;7475;53.558;9.970;2022-08-19T01:55:04;20.95;;;18.80;;
14766;SDS011;7475;53.558;9.970;2022-08-19T01:57:30;24.80;;;19.48;;
14766;SDS011;7475;53.558;9.970;2022-08-19T01:59:55;29.15;;;21.02;;
14766;SDS011;7475;53.558;9.970;2022-08-19T02:02:21;24.63;;;20.25;;
14766;SDS011;7475;53.558;9.970;2022-08-19T02:04:47;28.52;;;20.63;;
14766;SDS011;7475;53.558;9.970;2022-08-19T02:07:12;25.95;;;19.90;;
14766;SDS011;7475;53.558;9.970;2022-08-19T02:09:37;24.17;;;19.92;;
14766;SDS011;7475;53.558;9.970;2022-08-19T02:12:03;26.23;;;20.02;;
14766;SDS011;7475;53.558;9.970;2022-08-19T02:14:29;25.20;;;20.20;;
14766;SDS011;7475;53.558;9.970;2022-08-19T02:16:54;24.73;;;19.35;;
14766;SDS011;7475;53.558;9.970;2022-08-19T02:19:19;29.85;;;20.33;;
14766;SDS011;7475;53.558;9.970;2022-08-19T02:21:45;24.93;;;20.53;;
14766;SDS011;7475;53.558;9.970;2022-08-19T02:24:11;30.45;;;21.48;;
14766;SDS011;7475;53.558;9.970;2022-08-19T02:26:37;29.13;;;20.73;;
14766;SDS011;7475;53.558;9.970;2022-08-19T02:29:02;29.67;;;21.55;;
14766;SDS011;7475;53.558;9.970;2022-08-19T02:31:28;29.17;;;20.75;;
14766;SDS011;7475;53.558;9.970;2022-08-19T02:33:53;29.10;;;21.50;;
14766;SDS011;7475;53.558;9.970;2022-08-19T02:36:20;30.70;;;22.33;;
14766;SDS011;7475;53.558;9.970;2022-08-19T02:39:00;31.10;;;20.73;;
14766;SDS011;7475;53.558;9.970;2022-08-19T02:41:26;31.85;;;21.63;;
14766;SDS011;7475;53.558;9.970;2022-08-19T02:43:52;31.05;;;21.52;;
14766;SDS011;7475;53.558;9.970;2022-08-19T02:46:18;30.45;;;22.33;;
14766;SDS011;7475;53.558;9.970;2022-08-19T02:48:46;34.33;;;22.67;;
14766;SDS011;7475;53.558;9.970;2022-08-19T02:51:15;30.38;;;21.65;;
14766;SDS011;7475;53.558;9.970;2022-08-19T02:53:40;36.03;;;22.98;;
14766;SDS011;7475;53.558;9.970;2022-08-19T02:56:06;34.53;;;23.73;;
14766;SDS011;7475;53.558;9.970;2022-08-19T02:58:31;36.00;;;23.42;;
14766;SDS011;7475;53.558;9.970;2022-08-19T03:00:57;38.17;;;23.83;;
14766;SDS011;7475;53.558;9.970;2022-08-19T03:03:22;36.53;;;23.40;;
14766;SDS011;7475;53.558;9.970;2022-08-19T03:05:50;44.72;;;25.67;;
14766;SDS011;7475;53.558;9.970;2022-08-19T03:08:15;40.90;;;25.42;;
14766;SDS011;7475;53.558;9.970;2022-08-19T03:10:41;41.75;;;26.25;;
14766;SDS011;7475;53.558;9.970;2022-08-19T03:13:08;46.65;;;28.27;;
14766;SDS011;7475;53.558;9.970;2022-08-19T03:15:34;46.30;;;28.35;;
14766;SDS011;7475;53.558;9.970;2022-08-19T03:17:59;55.23;;;30.87;;
14766;SDS011;7475;53.558;9.970;2022-08-19T03:20:24;56.58;;;32.15;;
14766;SDS011;7475;53.558;9.970;2022-08-19T03:22:51;54.58;;;31.02;;
14766;SDS011;7475;53.558;9.970;2022-08-19T03:25:16;56.70;;;31.50;;
14766;SDS011;7475;53.558;9.970;2022-08-19T03:27:42;56.90;;;31.05;;
14766;SDS011;7475;53.558;9.970;2022-08-19T03:30:07;55.53;;;31.48;;
14766;SDS011;7475;53.558;9.970;2022-08-19T03:32:32;53.58;;;30.70;;
14766;SDS011;7475;53.558;9.970;2022-08-19T03:34:57;52.80;;;29.90;;
14766;SDS011;7475;53.558;9.970;2022-08-19T03:37:23;51.97;;;29.03;;
14766;SDS011;7475;53.558;9.970;2022-08-19T03:39:48;50.13;;;30.50;;
14766;SDS011;7475;53.558;9.970;2022-08-19T03:42:13;50.08;;;29.27;;
14766;SDS011;7475;53.558;9.970;2022-08-19T03:44:38;53.05;;;30.35;;
14766;SDS011;7475;53.558;9.970;2022-08-19T03:47:04;51.38;;;30.77;;
14766;SDS011;7475;53.558;9.970;2022-08-19T03:49:30;50.47;;;30.10;;
14766;SDS011;7475;53.558;9.970;2022-08-19T03:51:56;54.63;;;31.13;;
14766;SDS011;7475;53.558;9.970;2022-08-19T03:54:23;51.05;;;28.98;;
14766;SDS011;7475;53.558;9.970;2022-08-19T03:56:49;46.45;;;29.45;;
14766;SDS011;7475;53.558;9.970;2022-08-19T03:59:17;46.25;;;28.40;;
14766;SDS011;7475;53.558;9.970;2022-08-19T04:01:42;47.92;;;30.10;;
14766;SDS011;7475;53.558;9.970;2022-08-19T04:04:07;46.95;;;30.05;;
14766;SDS011;7475;53.558;9.970;2022-08-19T04:06:34;50.42;;;30.55;;
14766;SDS011;7475;53.558;9.970;2022-08-19T04:09:00;49.63;;;30.58;;
14766;SDS011;7475;53.558;9.970;2022-08-19T04:11:45;47.15;;;30.25;;
14766;SDS011;7475;53.558;9.970;2022-08-19T04:14:13;49.22;;;29.30;;
14766;SDS011;7475;53.558;9.970;2022-08-19T04:16:39;46.45;;;28.23;;
14766;SDS011;7475;53.558;9.970;2022-08-19T04:19:04;50.92;;;29.38;;
14766;SDS011;7475;53.558;9.970;2022-08-19T04:21:30;44.40;;;31.63;;
14766;SDS011;7475;53.558;9.970;2022-08-19T04:23:55;47.92;;;31.08;;
14766;SDS011;7475;53.558;9.970;2022-08-19T04:26:22;49.97;;;33.33;;
14766;SDS011;7475;53.558;9.970;2022-08-19T04:28:48;45.97;;;31.55;;
14766;SDS011;7475;53.558;9.970;2022-08-19T04:31:14;46.63;;;31.42;;
14766;SDS011;7475;53.558;9.970;2022-08-19T04:33:40;48.17;;;31.33;;
14766;SDS011;7475;53.558;9.970;2022-08-19T04:36:06;46.05;;;32.60;;
14766;SDS011;7475;53.558;9.970;2022-08-19T04:38:31;47.33;;;33.28;;
14766;SDS011;7475;53.558;9.970;2022-08-19T04:40:56;44.97;;;31.50;;
14766;SDS011;7475;53.558;9.970;2022-08-19T04:43:40;47.42;;;31.90;;
14766;SDS011;7475;53.558;9.970;2022-08-19T04:46:06;48.83;;;33.87;;
14766;SDS011;7475;53.558;9.970;2022-08-19T04:48:31;49.33;;;34.55;;
14766;SDS011;7475;53.558;9.970;2022-08-19T04:50:57;47.38;;;33.25;;
14766;SDS011;7475;53.558;9.970;2022-08-19T04:53:31;45.70;;;30.63;;
14766;SDS011;7475;53.558;9.970;2022-08-19T04:55:57;44.15;;;29.17;;
14766;SDS011;7475;53.558;9.970;2022-08-19T04:58:23;36.80;;;26.88;;
14766;SDS011;7475;53.558;9.970;2022-08-19T05:00:49;42.25;;;27.30;;
14766;SDS011;7475;53.558;9.970;2022-08-19T05:03:14;41.60;;;28.35;;
14766;SDS011;7475;53.558;9.970;2022-08-19T05:05:42;43.83;;;27.95;;
14766;SDS011;7475;53.558;9.970;2022-08-19T05:08:07;40.55;;;27.63;;
14766;SDS011;7475;53.558;9.970;2022-08-19T05:10:36;38.90;;;27.63;;
14766;SDS011;7475;53.558;9.970;2022-08-19T05:13:02;44.17;;;27.60;;
14766;SDS011;7475;53.558;9.970;2022-08-19T05:15:27;39.08;;;26.50;;
14766;SDS011;7475;53.558;9.970;2022-08-19T05:17:53;40.58;;;27.27;;
14766;SDS011;7475;53.558;9.970;2022-08-19T05:20:40;34.30;;;25.35;;
14766;SDS011;7475;53.558;9.970;2022-08-19T05:23:24;38.28;;;25.40;;
14766;SDS011;7475;53.558;9.970;2022-08-19T05:25:50;35.53;;;26.17;;
14766;SDS011;7475;53.558;9.970;2022-08-19T05:28:15;33.92;;;22.55;;
14766;SDS011;7475;53.558;9.970;2022-08-19T05:30:41;31.65;;;22.92;;
14766;SDS011;7475;53.558;9.970;2022-08-19T05:33:08;29.55;;;22.27;;
14766;SDS011;7475;53.558;9.970;2022-08-19T05:35:37;29.80;;;21.98;;
14766;SDS011;7475;53.558;9.970;2022-08-19T05:38:02;31.45;;;21.63;;
14766;SDS011;7475;53.558;9.970;2022-08-19T05:40:27;31.83;;;21.30;;
14766;SDS011;7475;53.558;9.970;2022-08-19T05:42:53;24.25;;;20.25;;
14766;SDS011;7475;53.558;9.970;2022-08-19T05:45:18;28.57;;;20.87;;
14766;SDS011;7475;53.558;9.970;2022-08-19T05:47:43;32.03;;;20.50;;
14766;SDS011;7475;53.558;9.970;2022-08-19T05:50:09;32.67;;;21.02;;
14766;SDS011;7475;53.558;9.970;2022-08-19T05:52:36;25.67;;;20.13;;
14766;SDS011;7475;53.558;9.970;2022-08-19T05:55:02;29.10;;;20.38;;
14766;SDS011;7475;53.558;9.970;2022-08-19T05:57:28;28.85;;;20.58;;
14766;SDS011;7475;53.558;9.970;2022-08-19T05:59:53;29.42;;;20.38;;
14766;SDS011;7475;53.558;9.970;2022-08-19T06:02:19;31.15;;;20.90;;
14766;SDS011;7475;53.558;9.970;2022-08-19T06:04:44;26.83;;;20.38;;
14766;SDS011;7475;53.558;9.970;2022-08-19T06:07:09;30.17;;;20.58;;
14766;SDS011;7475;53.558;9.970;2022-08-19T06:09:34;24.63;;;19.88;;
14766;SDS011;7475;53.558;9.970;2022-08-19T06:12:00;29.67;;;20.80;;
14766;SDS011;7475;53.558;9.970;2022-08-19T06:14:28;35.20;;;22.23;;
14766;SDS011;7475;53.558;9.970;2022-08-19T06:16:53;31.02;;;22.10;;
14766;SDS011;7475;53.558;9.970;2022-08-19T06:19:20;34.33;;;22.35;;
14766;SDS011;7475;53.558;9.970;2022-08-19T06:21:47;34.53;;;21.60;;
14766;SDS011;7475;53.558;9.970;2022-08-19T06:24:14;35.70;;;21.83;;
14766;SDS011;7475;53.558;9.970;2022-08-19T06:26:40;31.33;;;22.88;;
14766;SDS011;7475;53.558;9.970;2022-08-19T06:29:06;34.95;;;21.83;;
14766;SDS011;7475;53.558;9.970;2022-08-19T06:31:32;34.13;;;21.95;;
14766;SDS011;7475;53.558;9.970;2022-08-19T06:33:59;34.30;;;21.35;;
14766;SDS011;7475;53.558;9.970;2022-08-19T06:36:26;36.83;;;23.75;;
14766;SDS011;7475;53.558;9.970;2022-08-19T06:38:53;38.40;;;24.10;;
14766;SDS011;7475;53.558;9.970;2022-08-19T06:41:18;37.30;;;22.95;;
14766;SDS011;7475;53.558;9.970;2022-08-19T06:43:43;32.55;;;23.65;;
14766;SDS011;7475;53.558;9.970;2022-08-19T06:46:09;35.72;;;24.50;;
14766;SDS011;7475;53.558;9.970;2022-08-19T06:48:36;43.47;;;24.95;;
14766;SDS011;7475;53.558;9.970;2022-08-19T06:51:01;37.10;;;21.38;;
14766;SDS011;7475;53.558;9.970;2022-08-19T06:53:28;29.02;;;20.55;;
14766;SDS011;7475;53.558;9.970;2022-08-19T06:55:54;27.13;;;20.05;;
14766;SDS011;7475;53.558;9.970;2022-08-19T06:58:27;28.65;;;20.75;;
14766;SDS011;7475;53.558;9.970;2022-08-19T07:00:53;28.45;;;19.20;;
14766;SDS011;7475;53.558;9.970;2022-08-19T07:03:18;34.27;;;21.07;;
14766;SDS011;7475;53.558;9.970;2022-08-19T07:05:43;27.15;;;19.52;;
14766;SDS011;7475;53.558;9.970;2022-08-19T07:08:09;27.40;;;20.83;;
14766;SDS011;7475;53.558;9.970;2022-08-19T07:10:34;34.42;;;18.58;;
14766;SDS011;7475;53.558;9.970;2022-08-19T07:13:01;26.85;;;18.48;;
14766;SDS011;7475;53.558;9.970;2022-08-19T07:15:26;24.05;;;17.20;;
14766;SDS011;7475;53.558;9.970;2022-08-19T07:17:52;29.10;;;17.80;;
14766;SDS011;7475;53.558;9.970;2022-08-19T07:20:17;28.05;;;15.90;;
14766;SDS011;7475;53.558;9.970;2022-08-19T07:22:42;21.08;;;14.95;;
14766;SDS011;7475;53.558;9.970;2022-08-19T07:25:09;22.00;;;14.40;;
14766;SDS011;7475;53.558;9.970;2022-08-19T07:27:34;19.08;;;13.73;;
14766;SDS011;7475;53.558;9.970;2022-08-19T07:29:59;21.08;;;12.95;;
14766;SDS011;7475;53.558;9.970;2022-08-19T07:32:24;19.38;;;12.63;;
14766;SDS011;7475;53.558;9.970;2022-08-19T07:34:52;18.85;;;12.95;;
14766;SDS011;7475;53.558;9.970;2022-08-19T07:37:18;21.48;;;12.68;;
14766;SDS011;7475;53.558;9.970;2022-08-19T07:39:43;18.27;;;11.87;;
14766;SDS011;7475;53.558;9.970;2022-08-19T07:42:09;14.07;;;11.13;;
14766;SDS011;7475;53.558;9.970;2022-08-19T07:44:35;13.88;;;11.25;;
14766;SDS011;7475;53.558;9.970;2022-08-19T07:47:00;18.70;;;11.95;;
14766;SDS011;7475;53.558;9.970;2022-08-19T07:49:26;13.18;;;10.80;;
14766;SDS011;7475;53.558;9.970;2022-08-19T07:51:55;16.65;;;10.80;;
14766;SDS011;7475;53.558;9.970;2022-08-19T07:54:22;14.13;;;10.15;;
14766;SDS011;7475;53.558;9.970;2022-08-19T07:56:47;11.98;;;10.45;;
14766;SDS011;7475;53.558;9.970;2022-08-19T07:59:15;12.05;;;9.68;;
14766;SDS011;7475;53.558;9.970;2022-08-19T08:01:42;11.85;;;10.13;;
14766;SDS011;7475;53.558;9.970;2022-08-19T08:04:08;13.25;;;9.50;;
14766;SDS011;7475;53.558;9.970;2022-08-19T08:06:52;15.00;;;10.80;;
14766;SDS011;7475;53.558;9.970;2022-08-19T08:09:38;18.02;;;13.10;;
14766;SDS011;7475;53.558;9.970;2022-08-19T08:12:05;18.13;;;12.43;;
14766;SDS011;7475;53.558;9.970;2022-08-19T08:14:36;15.50;;;11.73;;
14766;SDS011;7475;53.558;9.970;2022-08-19T08:17:01;16.88;;;12.27;;
14766;SDS011;7475;53.558;9.970;2022-08-19T08:19:27;14.27;;;9.80;;
14766;SDS011;7475;53.558;9.970;2022-08-19T08:21:54;17.67;;;12.25;;
14766;SDS011;7475;53.558;9.970;2022-08-19T08:24:19;15.80;;;11.73;;
14766;SDS011;7475;53.558;9.970;2022-08-19T08:26:45;13.65;;;10.07;;
14766;SDS011;7475;53.558;9.970;2022-08-19T08:29:11;17.42;;;11.05;;
14766;SDS011;7475;53.558;9.970;2022-08-19T08:31:37;19.88;;;12.75;;
14766;SDS011;7475;53.558;9.970;2022-08-19T08:34:03;14.60;;;12.73;;
14766;SDS011;7475;53.558;9.970;2022-08-19T08:36:28;16.92;;;13.40;;
14766;SDS011;7475;53.558;9.970;2022-08-19T08:38:53;20.25;;;15.20;;
14766;SDS011;7475;53.558;9.970;2022-08-19T08:43:45;18.83;;;13.38;;
14766;SDS011;7475;53.558;9.970;2022-08-19T08:46:18;21.27;;;15.30;;
14766;SDS011;7475;53.558;9.970;2022-08-19T08:51:23;19.90;;;15.90;;
14766;SDS011;7475;53.558;9.970;2022-08-19T08:53:51;22.25;;;15.50;;
14766;SDS011;7475;53.558;9.970;2022-08-19T08:56:17;26.20;;;16.95;;
14766;SDS011;7475;53.558;9.970;2022-08-19T08:58:51;23.95;;;17.25;;
14766;SDS011;7475;53.558;9.970;2022-08-19T09:01:19;20.13;;;17.15;;
14766;SDS011;7475;53.558;9.970;2022-08-19T09:03:44;26.15;;;17.73;;
14766;SDS011;7475;53.558;9.970;2022-08-19T09:06:23;27.05;;;18.48;;
14766;SDS011;7475;53.558;9.970;2022-08-19T09:11:48;22.15;;;16.98;;
14766;SDS011;7475;53.558;9.970;2022-08-19T09:16:46;23.70;;;15.98;;
14766;SDS011;7475;53.558;9.970;2022-08-19T09:19:13;23.10;;;16.05;;
14766;SDS011;7475;53.558;9.970;2022-08-19T09:21:38;26.33;;;16.90;;
14766;SDS011;7475;53.558;9.970;2022-08-19T09:24:04;22.00;;;14.90;;
14766;SDS011;7475;53.558;9.970;2022-08-19T09:26:30;26.13;;;15.77;;
14766;SDS011;7475;53.558;9.970;2022-08-19T09:28:57;23.30;;;15.18;;
14766;SDS011;7475;53.558;9.970;2022-08-19T09:31:24;21.23;;;14.15;;
14766;SDS011;7475;53.558;9.970;2022-08-19T09:33:50;18.73;;;13.80;;
14766;SDS011;7475;53.558;9.970;2022-08-19T09:36:16;17.27;;;13.82;;
14766;SDS011;7475;53.558;9.970;2022-08-19T09:38:43;17.70;;;13.27;;
14766;SDS011;7475;53.558;9.970;2022-08-19T09:41:11;22.60;;;12.85;;
14766;SDS011;7475;53.558;9.970;2022-08-19T09:43:38;16.00;;;12.07;;
14766;SDS011;7475;53.558;9.970;2022-08-19T09:46:04;18.70;;;13.70;;
14766;SDS011;7475;53.558;9.970;2022-08-19T09:48:31;15.50;;;13.25;;
14766;SDS011;7475;53.558;9.970;2022-08-19T09:51:03;17.20;;;13.23;;
14766;SDS011;7475;53.558;9.970;2022-08-19T09:53:29;20.02;;;12.25;;
14766;SDS011;7475;53.558;9.970;2022-08-19T09:55:55;14.48;;;12.18;;
14766;SDS011;7475;53.558;9.970;2022-08-19T09:58:20;17.55;;;13.05;;
14766;SDS011;7475;53.558;9.970;2022-08-19T10:00:45;17.85;;;13.57;;
14766;SDS011;7475;53.558;9.970;2022-08-19T10:03:11;24.17;;;14.90;;
14766;SDS011;7475;53.558;9.970;2022-08-19T10:05:36;18.80;;;13.53;;
14766;SDS011;7475;53.558;9.970;2022-08-19T10:08:14;17.55;;;13.95;;
14766;SDS011;7475;53.558;9.970;2022-08-19T10:10:40;16.42;;;14.38;;
14766;SDS011;7475;53.558;9.970;2022-08-19T10:13:08;18.40;;;13.50;;
14766;SDS011;7475;53.558;9.970;2022-08-19T10:15:34;21.67;;;15.77;;
14766;SDS011;7475;53.558;9.970;2022-08-19T10:17:59;24.23;;;16.88;;
14766;SDS011;7475;53.558;9.970;2022-08-19T10:20:24;20.45;;;15.55;;
14766;SDS011;7475;53.558;9.970;2022-08-19T10:22:50;18.77;;;14.50;;
14766;SDS011;7475;53.558;9.970;2022-08-19T10:25:15;25.87;;;15.70;;
14766;SDS011;7475;53.558;9.970;2022-08-19T10:27:41;20.23;;;14.85;;
14766;SDS011;7475;53.558;9.970;2022-08-19T10:30:07;21.85;;;17.95;;
14766;SDS011;7475;53.558;9.970;2022-08-19T10:32:33;18.35;;;15.82;;
14766;SDS011;7475;53.558;9.970;2022-08-19T10:34:59;19.90;;;14.52;;
14766;SDS011;7475;53.558;9.970;2022-08-19T10:37:24;19.00;;;15.50;;
14766;SDS011;7475;53.558;9.970;2022-08-19T10:39:49;17.77;;;15.68;;
14766;SDS011;7475;53.558;9.970;2022-08-19T10:42:15;23.73;;;15.93;;
14766;SDS011;7475;53.558;9.970;2022-08-19T10:44:41;20.05;;;15.77;;
14766;SDS011;7475;53.558;9.970;2022-08-19T10:47:06;22.05;;;15.82;;
14766;SDS011;7475;53.558;9.970;2022-08-19T10:49:32;22.27;;;16.65;;
14766;SDS011;7475;53.558;9.970;2022-08-19T10:52:17;22.35;;;16.50;;
14766;SDS011;7475;53.558;9.970;2022-08-19T10:55:02;19.33;;;16.35;;
14766;SDS011;7475;53.558;9.970;2022-08-19T10:57:46;22.95;;;17.13;;
14766;SDS011;7475;53.558;9.970;2022-08-19T11:00:11;21.65;;;16.85;;
14766;SDS011;7475;53.558;9.970;2022-08-19T11:02:36;19.98;;;15.88;;
14766;SDS011;7475;53.558;9.970;2022-08-19T11:05:02;20.05;;;17.00;;
14766;SDS011;7475;53.558;9.970;2022-08-19T11:07:28;19.38;;;16.35;;
14766;SDS011;7475;53.558;9.970;2022-08-19T11:09:53;18.23;;;15.63;;
14766;SDS011;7475;53.558;9.970;2022-08-19T11:12:18;22.10;;;16.17;;
14766;SDS011;7475;53.558;9.970;2022-08-19T11:14:44;19.17;;;15.98;;
14766;SDS011;7475;53.558;9.970;2022-08-19T11:17:09;23.98;;;20.05;;
14766;SDS011;7475;53.558;9.970;2022-08-19T11:19:36;23.05;;;17.10;;
14766;SDS011;7475;53.558;9.970;2022-08-19T11:22:01;22.08;;;17.08;;
14766;SDS011;7475;53.558;9.970;2022-08-19T11:24:27;21.13;;;16.70;;
14766;SDS011;7475;53.558;9.970;2022-08-19T11:26:54;20.38;;;16.33;;
14766;SDS011;7475;53.558;9.970;2022-08-19T11:29:23;21.45;;;16.40;;
14766;SDS011;7475;53.558;9.970;2022-08-19T11:31:52;20.33;;;16.05;;
14766;SDS011;7475;53.558;9.970;2022-08-19T11:34:19;19.50;;;15.80;;
14766;SDS011;7475;53.558;9.970;2022-08-19T11:36:45;20.45;;;15.30;;
14766;SDS011;7475;53.558;9.970;2022-08-19T11:39:13;22.65;;;15.63;;
14766;SDS011;7475;53.558;9.970;2022-08-19T11:41:39;22.02;;;15.20;;
14766;SDS011;7475;53.558;9.970;2022-08-19T11:44:04;16.40;;;14.32;;
14766;SDS011;7475;53.558;9.970;2022-08-19T11:46:30;15.32;;;13.73;;
14766;SDS011;7475;53.558;9.970;2022-08-19T11:48:56;16.23;;;13.38;;
14766;SDS011;7475;53.558;9.970;2022-08-19T11:51:22;18.65;;;13.30;;
14766;SDS011;7475;53.558;9.970;2022-08-19T11:53:49;19.27;;;13.88;;
14766;SDS011;7475;53.558;9.970;2022-08-19T11:56:15;18.08;;;13.50;;
14766;SDS011;7475;53.558;9.970;2022-08-19T11:58:40;16.13;;;14.00;;
14766;SDS011;7475;53.558;9.970;2022-08-19T12:01:17;15.38;;;13.65;;
14766;SDS011;7475;53.558;9.970;2022-08-19T12:03:43;17.33;;;14.07;;
14766;SDS011;7475;53.558;9.970;2022-08-19T12:06:11;18.25;;;13.50;;
14766;SDS011;7475;53.558;9.970;2022-08-19T12:08:38;14.25;;;12.73;;
14766;SDS011;7475;53.558;9.970;2022-08-19T12:11:03;15.52;;;13.93;;
14766;SDS011;7475;53.558;9.970;2022-08-19T12:13:29;15.23;;;13.68;;
14766;SDS011;7475;53.558;9.970;2022-08-19T12:15:55;15.13;;;13.57;;
14766;SDS011;7475;53.558;9.970;2022-08-19T12:18:20;15.77;;;13.77;;
14766;SDS011;7475;53.558;9.970;2022-08-19T12:20:46;14.23;;;12.65;;
14766;SDS011;7475;53.558;9.970;2022-08-19T12:23:12;14.40;;;12.95;;
14766;SDS011;7475;53.558;9.970;2022-08-19T12:25:37;14.55;;;13.13;;
14766;SDS011;7475;53.558;9.970;2022-08-19T12:28:15;15.65;;;12.95;;
14766;SDS011;7475;53.558;9.970;2022-08-19T12:30:41;13.38;;;11.45;;
14766;SDS011;7475;53.558;9.970;2022-08-19T12:33:06;12.07;;;10.98;;
14766;SDS011;7475;53.558;9.970;2022-08-19T12:35:32;12.00;;;10.65;;
14766;SDS011;7475;53.558;9.970;2022-08-19T12:37:58;13.27;;;11.00;;
14766;SDS011;7475;53.558;9.970;2022-08-19T12:40:24;12.40;;;11.15;;
14766;SDS011;7475;53.558;9.970;2022-08-19T12:42:49;12.02;;;10.77;;
14766;SDS011;7475;53.558;9.970;2022-08-19T12:45:16;12.45;;;11.23;;
14766;SDS011;7475;53.558;9.970;2022-08-19T12:47:41;13.05;;;10.50;;
14766;SDS011;7475;53.558;9.970;2022-08-19T12:50:06;12.63;;;11.32;;
14766;SDS011;7475;53.558;9.970;2022-08-19T12:52:34;13.70;;;11.13;;
14766;SDS011;7475;53.558;9.970;2022-08-19T12:55:00;12.75;;;11.45;;
14766;SDS011;7475;53.558;9.970;2022-08-19T12:57:26;13.00;;;11.90;;
14766;SDS011;7475;53.558;9.970;2022-08-19T12:59:52;13.23;;;12.02;;
14766;SDS011;7475;53.558;9.970;2022-08-19T13:02:22;12.77;;;11.52;;
14766;SDS011;7475;53.558;9.970;2022-08-19T13:04:47;11.60;;;10.60;;
14766;SDS011;7475;53.558;9.970;2022-08-19T13:07:12;11.93;;;10.75;;
14766;SDS011;7475;53.558;9.970;2022-08-19T13:09:37;12.23;;;11.05;;
14766;SDS011;7475;53.558;9.970;2022-08-19T13:12:06;12.50;;;10.27;;
14766;SDS011;7475;53.558;9.970;2022-08-19T13:14:33;12.80;;;11.60;;
14766;SDS011;7475;53.558;9.970;2022-08-19T13:16:58;12.23;;;10.98;;
14766;SDS011;7475;53.558;9.970;2022-08-19T13:19:24;12.15;;;10.95;;
14766;SDS011;7475;53.558;9.970;2022-08-19T13:21:49;11.70;;;10.50;;
14766;SDS011;7475;53.558;9.970;2022-08-19T13:24:15;12.05;;;10.77;;
14766;SDS011;7475;53.558;9.970;2022-08-19T13:26:40;12.65;;;11.38;;
14766;SDS011;7475;53.558;9.970;2022-08-19T13:29:05;12.50;;;10.87;;
14766;SDS011;7475;53.558;9.970;2022-08-19T13:31:49;12.98;;;11.43;;
14766;SDS011;7475;53.558;9.970;2022-08-19T13:34:33;11.77;;;10.65;;
14766;SDS011;7475;53.558;9.970;2022-08-19T13:37:00;11.82;;;10.73;;
14766;SDS011;7475;53.558;9.970;2022-08-19T13:39:28;12.88;;;11.57;;
14766;SDS011;7475;53.558;9.970;2022-08-19T13:41:53;15.57;;;12.63;;
14766;SDS011;7475;53.558;9.970;2022-08-19T13:44:18;13.83;;;12.43;;
14766;SDS011;7475;53.558;9.970;2022-08-19T13:46:44;14.38;;;13.07;;
14766;SDS011;7475;53.558;9.970;2022-08-19T13:49:10;13.95;;;12.55;;
14766;SDS011;7475;53.558;9.970;2022-08-19T13:51:35;18.23;;;16.48;;
14766;SDS011;7475;53.558;9.970;2022-08-19T13:54:02;16.27;;;14.77;;
14766;SDS011;7475;53.558;9.970;2022-08-19T13:56:27;46.20;;;41.13;;
14766;SDS011;7475;53.558;9.970;2022-08-19T13:58:52;24.67;;;21.95;;
14766;SDS011;7475;53.558;9.970;2022-08-19T14:01:19;24.05;;;21.65;;
14766;SDS011;7475;53.558;9.970;2022-08-19T14:03:44;19.85;;;17.88;;
14766;SDS011;7475;53.558;9.970;2022-08-19T14:06:10;15.65;;;14.13;;
14766;SDS011;7475;53.558;9.970;2022-08-19T14:08:37;27.48;;;24.55;;
14766;SDS011;7475;53.558;9.970;2022-08-19T14:11:04;18.38;;;15.70;;
14766;SDS011;7475;53.558;9.970;2022-08-19T14:13:30;29.80;;;26.77;;
14766;SDS011;7475;53.558;9.970;2022-08-19T14:15:55;13.18;;;11.90;;
14766;SDS011;7475;53.558;9.970;2022-08-19T14:18:21;15.20;;;13.80;;
14766;SDS011;7475;53.558;9.970;2022-08-19T14:20:46;16.58;;;14.98;;
14766;SDS011;7475;53.558;9.970;2022-08-19T14:23:11;18.85;;;16.90;;
14766;SDS011;7475;53.558;9.970;2022-08-19T14:25:37;18.92;;;17.08;;
14766;SDS011;7475;53.558;9.970;2022-08-19T14:28:03;28.70;;;25.88;;
14766;SDS011;7475;53.558;9.970;2022-08-19T14:30:29;18.65;;;16.85;;
14766;SDS011;7475;53.558;9.970;2022-08-19T14:32:55;24.58;;;22.17;;
14766;SDS011;7475;53.558;9.970;2022-08-19T14:35:20;20.80;;;18.80;;
14766;SDS011;7475;53.558;9.970;2022-08-19T14:37:47;14.10;;;12.90;;
14766;SDS011;7475;53.558;9.970;2022-08-19T14:40:13;15.68;;;14.15;;
14766;SDS011;7475;53.558;9.970;2022-08-19T14:42:40;40.78;;;36.50;;
14766;SDS011;7475;53.558;9.970;2022-08-19T14:45:06;14.30;;;12.90;;